createdAt,value
2017-07-23T00:01:58.817Z,10.68
2017-07-23T00:04:33.247Z,14.77
2017-07-23T00:07:07.557Z,14.05
2017-07-23T00:09:42.109Z,15.27
2017-07-23T00:12:16.541Z,21.92
2017-07-23T00:14:50.818Z,12.60
2017-07-23T00:17:25.148Z,14.27
2017-07-23T00:19:59.853Z,12.48
2017-07-23T00:22:34.356Z,14.73
2017-07-23T00:25:08.996Z,13.77
2017-07-23T00:27:43.381Z,18.15
2017-07-23T00:30:17.692Z,15.50
2017-07-23T00:32:52.059Z,14.15
2017-07-23T00:35:26.536Z,16.48
2017-07-23T00:38:01.061Z,17.30
2017-07-23T00:40:36.420Z,16.50
2017-07-23T00:43:11.436Z,14.55
2017-07-23T00:45:47.721Z,18.50
2017-07-23T00:48:22.011Z,18.58
2017-07-23T00:50:56.363Z,19.67
2017-07-23T00:53:30.863Z,15.23
2017-07-23T00:56:05.209Z,16.58
2017-07-23T00:58:39.733Z,19.35
2017-07-23T01:01:14.213Z,25.33
2017-07-23T01:03:48.567Z,21.17
2017-07-23T01:06:23.003Z,20.75
2017-07-23T01:08:58.087Z,18.70
2017-07-23T01:11:32.631Z,16.67
2017-07-23T01:14:07.845Z,23.83
2017-07-23T01:16:43.002Z,19.40
2017-07-23T01:19:17.581Z,18.77
2017-07-23T01:21:52.064Z,18.73
2017-07-23T01:24:26.476Z,21.65
2017-07-23T01:27:00.945Z,17.62
2017-07-23T01:29:35.624Z,28.67
2017-07-23T01:32:09.897Z,19.90
2017-07-23T01:34:44.458Z,24.23
2017-07-23T01:37:18.889Z,20.75
2017-07-23T01:39:53.271Z,22.35
2017-07-23T01:42:27.593Z,22.00
2017-07-23T01:45:01.959Z,21.58
2017-07-23T01:47:36.481Z,26.77
2017-07-23T01:50:10.921Z,31.33
2017-07-23T01:52:45.452Z,25.65
2017-07-23T01:55:19.905Z,25.08
2017-07-23T01:57:54.381Z,28.50
2017-07-23T02:00:28.836Z,24.35
2017-07-23T02:03:03.173Z,27.92
2017-07-23T02:05:37.467Z,31.75
2017-07-23T02:08:11.801Z,28.60
2017-07-23T02:10:46.302Z,43.35
2017-07-23T02:13:20.839Z,42.65
2017-07-23T02:15:55.334Z,30.30
2017-07-23T02:18:29.778Z,39.60
2017-07-23T02:21:04.250Z,31.98
2017-07-23T02:23:38.563Z,34.20
2017-07-23T02:26:13.180Z,29.02
2017-07-23T02:28:47.536Z,34.42
2017-07-23T02:31:22.076Z,38.78
2017-07-23T02:33:56.385Z,32.03
2017-07-23T02:36:31.142Z,31.05
2017-07-23T02:39:05.624Z,43.50
2017-07-23T02:41:40.092Z,41.28
2017-07-23T02:44:14.384Z,37.08
2017-07-23T02:46:48.903Z,40.72
2017-07-23T02:49:23.336Z,43.00
2017-07-23T02:51:58.762Z,33.05
2017-07-23T02:54:33.200Z,38.47
2017-07-23T02:57:07.608Z,45.90
2017-07-23T02:59:42.152Z,36.47
2017-07-23T03:02:16.633Z,46.75
2017-07-23T03:04:51.077Z,43.03
2017-07-23T03:07:25.463Z,47.88
2017-07-23T03:09:59.893Z,43.50
2017-07-23T03:12:34.584Z,42.78
2017-07-23T03:15:09.072Z,44.50
2017-07-23T03:17:43.618Z,49.47
2017-07-23T03:20:18.888Z,42.08
2017-07-23T03:22:54.063Z,40.05
2017-07-23T03:25:28.640Z,47.53
2017-07-23T03:28:03.029Z,50.83
2017-07-23T03:30:37.532Z,51.17
2017-07-23T03:33:11.821Z,42.30
2017-07-23T03:35:46.318Z,43.33
2017-07-23T03:38:20.831Z,57.50
2017-07-23T03:40:55.234Z,42.10
2017-07-23T03:43:29.634Z,47.35
2017-07-23T03:46:04.041Z,43.50
2017-07-23T03:48:38.572Z,48.45
2017-07-23T03:51:13.873Z,39.28
2017-07-23T03:53:48.452Z,38.58
2017-07-23T03:56:22.933Z,33.17
2017-07-23T03:58:57.604Z,33.13
2017-07-23T04:01:31.914Z,35.00
2017-07-23T04:04:06.360Z,36.80
2017-07-23T04:06:40.830Z,28.70
2017-07-23T04:09:15.386Z,39.95
2017-07-23T04:11:49.868Z,33.92
2017-07-23T04:14:24.280Z,27.85
2017-07-23T04:16:59.528Z,24.42
2017-07-23T04:19:34.016Z,31.12
2017-07-23T04:22:08.454Z,33.83
2017-07-23T04:24:42.880Z,29.73
2017-07-23T04:27:17.366Z,30.52
2017-07-23T04:29:51.773Z,33.33
2017-07-23T04:32:26.067Z,32.38
2017-07-23T04:35:00.452Z,30.77
2017-07-23T04:37:34.990Z,26.73
2017-07-23T04:40:09.582Z,30.67
2017-07-23T04:42:44.030Z,27.70
2017-07-23T04:45:18.633Z,27.70
2017-07-23T04:47:53.001Z,28.77
2017-07-23T04:50:27.481Z,27.25
2017-07-23T04:53:01.764Z,24.17
2017-07-23T04:55:36.088Z,25.27
2017-07-23T04:58:10.610Z,30.00
2017-07-23T05:00:45.654Z,24.12
2017-07-23T05:03:20.131Z,25.25
2017-07-23T05:05:54.620Z,24.95
2017-07-23T05:08:29.176Z,28.58
2017-07-23T05:11:03.512Z,25.73
2017-07-23T05:13:38.056Z,26.80
2017-07-23T05:16:12.588Z,26.30
2017-07-23T05:18:47.820Z,25.23
2017-07-23T05:21:22.140Z,30.00
2017-07-23T05:23:56.688Z,29.55
2017-07-23T05:26:31.076Z,24.73
2017-07-23T05:29:05.407Z,27.42
2017-07-23T05:31:39.877Z,28.08
2017-07-23T05:34:14.152Z,25.42
2017-07-23T05:36:48.517Z,27.95
2017-07-23T05:39:22.915Z,27.85
2017-07-23T05:41:57.526Z,25.33
2017-07-23T05:44:32.004Z,28.45
2017-07-23T05:47:06.586Z,28.35
2017-07-23T05:49:40.901Z,31.12
2017-07-23T05:52:16.136Z,27.55
2017-07-23T05:54:50.585Z,28.12
2017-07-23T05:57:25.669Z,25.90
2017-07-23T06:00:00.007Z,26.30
2017-07-23T06:02:34.417Z,32.17
2017-07-23T06:05:08.785Z,28.12
2017-07-23T06:07:43.137Z,30.73
2017-07-23T06:10:17.552Z,30.58
2017-07-23T06:12:52.105Z,27.42
2017-07-23T06:15:26.464Z,28.90
2017-07-23T06:18:00.785Z,34.20
2017-07-23T06:20:35.128Z,38.58
2017-07-23T06:23:09.528Z,36.13
2017-07-23T06:25:44.148Z,30.60
2017-07-23T06:28:19.387Z,33.53
2017-07-23T06:30:53.765Z,42.58
2017-07-23T06:33:28.112Z,42.45
2017-07-23T06:36:02.652Z,45.08
2017-07-23T06:38:37.072Z,42.95
2017-07-23T06:41:11.417Z,59.67
2017-07-23T06:43:45.833Z,41.20
2017-07-23T06:46:20.229Z,41.03
2017-07-23T06:48:54.568Z,40.33
2017-07-23T06:51:29.049Z,41.60
2017-07-23T06:54:04.321Z,41.50
2017-07-23T06:56:38.752Z,53.20
2017-07-23T06:59:13.096Z,46.37
2017-07-23T07:01:47.547Z,53.40
2017-07-23T07:04:21.976Z,37.72
2017-07-23T07:06:57.140Z,37.25
2017-07-23T07:09:31.537Z,38.75
2017-07-23T07:12:06.021Z,43.00
2017-07-23T07:14:41.238Z,38.22
2017-07-23T07:17:15.725Z,38.92
2017-07-23T07:19:50.380Z,37.03
2017-07-23T07:22:24.751Z,40.25
2017-07-23T07:24:59.495Z,38.95
2017-07-23T07:27:33.808Z,46.60
2017-07-23T07:30:08.155Z,33.67
2017-07-23T07:32:43.403Z,31.50
2017-07-23T07:35:17.880Z,31.08
2017-07-23T07:37:52.415Z,29.95
2017-07-23T07:40:26.773Z,29.40
2017-07-23T07:43:01.083Z,27.33
2017-07-23T07:45:35.408Z,26.00
2017-07-23T07:48:09.752Z,28.58
2017-07-23T07:50:44.273Z,27.98
2017-07-23T07:53:19.202Z,28.60
2017-07-23T07:55:53.795Z,28.42
2017-07-23T07:58:29.062Z,28.15
2017-07-23T08:01:03.522Z,28.02
2017-07-23T08:03:38.028Z,26.30
2017-07-23T08:06:13.328Z,26.58
2017-07-23T08:08:47.761Z,25.98
2017-07-23T08:11:22.143Z,23.48
2017-07-23T08:13:56.614Z,23.87
2017-07-23T08:16:31.382Z,10.00
2017-07-23T08:19:06.474Z,6.95
2017-07-23T08:21:41.855Z,7.32
2017-07-23T08:24:16.249Z,7.65
2017-07-23T08:26:50.789Z,8.48
2017-07-23T08:29:25.299Z,7.80
2017-07-23T08:31:59.784Z,7.95
2017-07-23T08:34:34.321Z,8.35
2017-07-23T08:37:08.723Z,10.00
2017-07-23T08:39:43.973Z,8.30
2017-07-23T08:42:18.312Z,9.85
2017-07-23T08:44:53.561Z,9.50
2017-07-23T08:47:35.632Z,8.73
2017-07-23T08:50:10.021Z,9.30
2017-07-23T08:52:44.362Z,9.38
2017-07-23T08:55:18.833Z,12.25
2017-07-23T08:57:53.149Z,10.93
2017-07-23T09:00:27.457Z,9.57
2017-07-23T09:03:01.976Z,10.07
2017-07-23T09:05:36.422Z,10.15
2017-07-23T09:08:10.829Z,11.63
2017-07-23T09:10:45.149Z,9.05
2017-07-23T09:13:19.617Z,11.20
2017-07-23T09:15:53.982Z,10.95
2017-07-23T09:18:28.362Z,9.43
2017-07-23T09:21:02.873Z,8.70
2017-07-23T09:23:37.328Z,9.07
2017-07-23T09:26:11.769Z,8.23
2017-07-23T09:28:46.124Z,9.15
2017-07-23T09:31:20.473Z,7.55
2017-07-23T09:33:54.792Z,6.30
2017-07-23T09:36:29.332Z,5.37
2017-07-23T09:39:03.706Z,5.07
2017-07-23T09:41:38.200Z,5.93
2017-07-23T09:44:12.534Z,6.53
2017-07-23T09:46:46.972Z,5.22
2017-07-23T09:49:21.297Z,5.50
2017-07-23T09:51:56.473Z,6.55
2017-07-23T09:54:32.271Z,5.97
2017-07-23T09:57:07.456Z,10.40
2017-07-23T09:59:42.598Z,5.18
2017-07-23T10:02:16.909Z,4.93
2017-07-23T10:04:51.225Z,4.87
2017-07-23T10:07:25.856Z,4.60
2017-07-23T10:10:00.323Z,4.82
2017-07-23T10:12:34.955Z,5.03
2017-07-23T10:15:09.429Z,5.37
2017-07-23T10:17:44.806Z,5.50
2017-07-23T10:20:19.517Z,7.15
2017-07-23T10:22:53.816Z,6.00
2017-07-23T10:25:29.098Z,5.55
2017-07-23T10:28:03.585Z,6.43
2017-07-23T10:30:38.060Z,4.87
2017-07-23T10:33:12.575Z,5.10
2017-07-23T10:35:47.109Z,4.75
2017-07-23T10:38:21.895Z,3.60
2017-07-23T10:40:56.256Z,5.07
2017-07-23T10:43:30.682Z,4.15
2017-07-23T10:46:05.066Z,3.00
2017-07-23T10:48:39.472Z,3.85
2017-07-23T10:51:14.741Z,3.30
2017-07-23T10:53:49.285Z,3.10
2017-07-23T10:56:23.801Z,3.05
2017-07-23T10:58:58.268Z,3.00
2017-07-23T11:01:32.647Z,2.50
2017-07-23T11:04:07.787Z,2.30
2017-07-23T11:06:42.484Z,2.20
2017-07-23T11:09:16.949Z,1.50
2017-07-23T11:11:52.034Z,1.70
2017-07-23T11:14:26.383Z,1.60
2017-07-23T11:17:00.794Z,1.70
2017-07-23T11:19:35.249Z,1.73
2017-07-23T11:22:09.828Z,2.40
2017-07-23T11:24:44.156Z,1.30
2017-07-23T11:27:18.687Z,1.70
2017-07-23T11:29:53.210Z,2.50
2017-07-23T11:32:27.740Z,2.60
2017-07-23T11:35:02.240Z,3.13
2017-07-23T11:37:52.531Z,2.57
2017-07-23T11:40:27.000Z,1.93
2017-07-23T11:43:02.295Z,2.50
2017-07-23T11:45:36.646Z,2.05
2017-07-23T11:48:11.845Z,2.33
2017-07-23T11:50:46.327Z,2.17
2017-07-23T11:53:20.647Z,2.53
2017-07-23T11:55:54.965Z,2.00
2017-07-23T11:58:29.289Z,2.53
2017-07-23T12:01:03.579Z,2.05
2017-07-23T12:03:38.044Z,2.10
2017-07-23T12:06:12.564Z,2.25
2017-07-23T12:08:46.892Z,1.85
2017-07-23T12:11:21.279Z,3.03
2017-07-23T12:13:56.655Z,1.90
2017-07-23T12:16:31.771Z,2.40
2017-07-23T12:19:06.224Z,2.77
2017-07-23T12:21:40.531Z,3.35
2017-07-23T12:24:15.022Z,3.13
2017-07-23T12:26:50.180Z,4.43
2017-07-23T12:29:24.523Z,3.80
2017-07-23T12:31:59.024Z,7.43
2017-07-23T12:34:33.516Z,3.37
2017-07-23T12:37:07.912Z,3.87
2017-07-23T12:39:42.368Z,3.37
2017-07-23T12:42:16.901Z,3.70
2017-07-23T12:44:51.308Z,5.80
2017-07-23T12:47:25.937Z,1.60
2017-07-23T12:50:00.414Z,3.08
2017-07-23T12:52:34.973Z,2.58
2017-07-23T12:55:13.619Z,3.28
2017-07-23T12:57:48.148Z,4.30
2017-07-23T13:00:22.596Z,4.32
2017-07-23T13:02:57.576Z,5.45
2017-07-23T13:05:31.931Z,7.18
2017-07-23T13:08:07.289Z,5.50
2017-07-23T13:10:41.821Z,4.28
2017-07-23T13:13:16.149Z,6.07
2017-07-23T13:15:50.588Z,4.60
2017-07-23T13:18:24.920Z,4.32
2017-07-23T13:20:59.233Z,4.72
2017-07-23T13:23:33.701Z,4.65
2017-07-23T13:26:08.175Z,3.90
2017-07-23T13:28:42.720Z,4.03
2017-07-23T13:31:17.077Z,7.20
2017-07-23T13:33:51.562Z,3.47
2017-07-23T13:36:25.840Z,4.00
2017-07-23T13:39:00.166Z,4.95
2017-07-23T13:41:34.568Z,5.07
2017-07-23T13:44:09.004Z,2.93
2017-07-23T13:46:43.477Z,3.00
2017-07-23T13:49:17.848Z,3.17
2017-07-23T13:51:52.376Z,3.30
2017-07-23T13:54:26.788Z,4.07
2017-07-23T13:57:01.290Z,2.30
2017-07-23T13:59:35.886Z,2.73
2017-07-23T14:02:12.158Z,2.57
2017-07-23T14:04:46.717Z,2.80
2017-07-23T14:07:21.197Z,5.87
2017-07-23T14:09:55.517Z,6.83
2017-07-23T14:12:29.881Z,4.43
2017-07-23T14:15:04.357Z,3.53
2017-07-23T14:17:38.864Z,2.13
2017-07-23T14:20:13.494Z,2.10
2017-07-23T14:22:47.860Z,2.20
2017-07-23T14:25:22.312Z,3.90
2017-07-23T14:27:56.779Z,3.13
2017-07-23T14:30:31.921Z,3.20
2017-07-23T14:33:06.458Z,2.33
2017-07-23T14:35:40.982Z,2.23
2017-07-23T14:38:15.373Z,2.57
2017-07-23T14:40:49.847Z,4.50
2017-07-23T14:43:24.312Z,2.97
2017-07-23T14:45:58.838Z,2.67
2017-07-23T14:48:33.270Z,2.73
2017-07-23T14:51:08.457Z,2.63
2017-07-23T14:53:42.979Z,3.60
2017-07-23T14:56:17.349Z,2.50
2017-07-23T14:58:51.835Z,3.53
2017-07-23T15:01:26.127Z,6.73
2017-07-23T15:04:00.391Z,4.50
2017-07-23T15:06:34.833Z,3.17
2017-07-23T15:09:09.211Z,2.83
2017-07-23T15:11:43.855Z,3.10
2017-07-23T15:14:18.256Z,3.17
2017-07-23T15:16:52.604Z,2.87
2017-07-23T15:19:26.986Z,3.60
2017-07-23T15:22:01.516Z,5.20
2017-07-23T15:24:35.873Z,6.53
2017-07-23T15:27:10.205Z,3.60
2017-07-23T15:29:44.541Z,2.80
2017-07-23T15:32:19.148Z,5.70
2017-07-23T15:34:54.417Z,4.80
2017-07-23T15:37:28.893Z,4.07
2017-07-23T15:40:03.378Z,3.53
2017-07-23T15:42:37.869Z,3.73
2017-07-23T15:45:12.194Z,3.53
2017-07-23T15:47:46.672Z,4.40
2017-07-23T15:50:21.860Z,6.30
2017-07-23T15:52:56.721Z,2.57
2017-07-23T15:55:31.228Z,3.13
2017-07-23T15:58:05.594Z,2.23
2017-07-23T16:00:40.068Z,4.37
2017-07-23T16:03:14.619Z,4.30
2017-07-23T16:05:49.033Z,2.70
2017-07-23T16:08:23.544Z,3.70
2017-07-23T16:10:58.788Z,4.97
2017-07-23T16:13:33.245Z,3.10
2017-07-23T16:16:07.664Z,3.10
2017-07-23T16:18:42.072Z,2.53
2017-07-23T16:21:16.542Z,3.80
2017-07-23T16:23:50.983Z,5.90
2017-07-23T16:26:25.281Z,2.20
2017-07-23T16:29:00.441Z,2.73
2017-07-23T16:31:34.976Z,2.67
2017-07-23T16:34:09.475Z,3.43
2017-07-23T16:36:43.776Z,2.87
2017-07-23T16:39:18.327Z,2.00
2017-07-23T16:41:52.698Z,2.67
2017-07-23T16:44:27.969Z,2.20
2017-07-23T16:47:03.995Z,3.08
2017-07-23T16:49:38.529Z,2.30
2017-07-23T16:52:13.659Z,2.53
2017-07-23T16:54:48.136Z,2.58
2017-07-23T16:57:22.899Z,3.17
2017-07-23T16:59:58.636Z,2.50
2017-07-23T17:02:33.133Z,3.55
2017-07-23T17:05:07.633Z,2.97
2017-07-23T17:07:42.040Z,2.53
2017-07-23T17:10:16.392Z,4.00
2017-07-23T17:12:50.780Z,2.50
2017-07-23T17:15:25.165Z,3.30
2017-07-23T17:17:59.826Z,2.40
2017-07-23T17:20:34.263Z,2.05
2017-07-23T17:23:09.369Z,4.53
2017-07-23T17:25:44.469Z,2.78
2017-07-23T17:28:18.945Z,3.90
2017-07-23T17:30:53.392Z,2.95
2017-07-23T17:33:27.886Z,2.40
2017-07-23T17:36:02.272Z,2.30
2017-07-23T17:38:36.965Z,2.28
2017-07-23T17:41:12.027Z,3.95
2017-07-23T17:43:46.372Z,3.28
2017-07-23T17:46:20.745Z,3.05
2017-07-23T17:48:55.220Z,2.55
2017-07-23T17:51:29.724Z,2.83
2017-07-23T17:54:04.140Z,2.72
2017-07-23T17:56:39.353Z,4.85
2017-07-23T17:59:13.703Z,4.20
2017-07-23T18:01:48.817Z,3.55
2017-07-23T18:04:23.224Z,4.20
2017-07-23T18:06:57.749Z,4.62
2017-07-23T18:09:32.244Z,3.67
2017-07-23T18:12:06.629Z,4.00
2017-07-23T18:14:41.133Z,4.37
2017-07-23T18:17:15.484Z,3.28
2017-07-23T18:19:49.923Z,4.57
2017-07-23T18:22:24.421Z,5.72
2017-07-23T18:24:58.853Z,3.40
2017-07-23T18:27:33.234Z,4.70
2017-07-23T18:30:07.536Z,3.45
2017-07-23T18:32:42.034Z,4.45
2017-07-23T18:35:16.536Z,3.40
2017-07-23T18:37:51.076Z,4.60
2017-07-23T18:40:25.534Z,3.10
2017-07-23T18:42:59.825Z,3.70
2017-07-23T18:45:34.116Z,3.30
2017-07-23T18:48:08.472Z,3.50
2017-07-23T18:50:43.591Z,5.07
2017-07-23T18:53:18.045Z,4.10
2017-07-23T18:55:52.458Z,3.40
2017-07-23T18:58:26.872Z,3.50
2017-07-23T19:01:01.303Z,3.15
2017-07-23T19:03:35.625Z,4.03
2017-07-23T19:06:09.895Z,5.22
2017-07-23T19:08:45.186Z,3.87
2017-07-23T19:11:19.485Z,3.28
2017-07-23T19:13:53.807Z,3.40
2017-07-23T19:16:28.357Z,5.10
2017-07-23T19:19:02.646Z,3.78
2017-07-23T19:21:38.035Z,4.32
2017-07-23T19:24:13.081Z,5.75
2017-07-23T19:26:47.532Z,3.83
2017-07-23T19:29:21.824Z,4.90
2017-07-23T19:31:56.164Z,4.75
2017-07-23T19:34:30.672Z,4.40
2017-07-23T19:37:05.164Z,4.72
2017-07-23T19:39:39.597Z,4.32
2017-07-23T19:42:14.229Z,4.18
2017-07-23T19:44:48.749Z,4.45
2017-07-23T19:47:24.001Z,4.85
2017-07-23T19:49:58.452Z,3.83
2017-07-23T19:52:32.801Z,3.40
2017-07-23T19:55:07.387Z,4.10
2017-07-23T19:57:42.830Z,4.18
2017-07-23T20:00:17.291Z,4.28
2017-07-23T20:02:51.677Z,4.80
2017-07-23T20:05:25.966Z,3.42
2017-07-23T20:08:00.302Z,4.30
2017-07-23T20:10:34.711Z,5.45
2017-07-23T20:13:09.448Z,3.58
2017-07-23T20:15:43.949Z,4.68
2017-07-23T20:18:18.400Z,4.68
2017-07-23T20:20:52.770Z,4.47
2017-07-23T20:23:27.220Z,3.70
2017-07-23T20:26:01.657Z,3.70
2017-07-23T20:28:36.092Z,5.05
2017-07-23T20:31:11.421Z,5.62
2017-07-23T20:33:47.753Z,4.55
2017-07-23T20:36:22.575Z,3.28
2017-07-23T20:39:03.523Z,5.25
2017-07-23T20:41:45.793Z,6.30
2017-07-23T20:44:20.284Z,4.30
2017-07-23T20:46:54.624Z,3.83
2017-07-23T20:49:29.128Z,4.47
2017-07-23T20:52:05.020Z,5.00
2017-07-23T20:54:41.106Z,4.82
2017-07-23T20:57:15.549Z,4.65
2017-07-23T20:59:49.972Z,3.92
2017-07-23T21:02:24.308Z,4.78
2017-07-23T21:04:59.436Z,3.62
2017-07-23T21:07:34.244Z,8.02
2017-07-23T21:10:08.736Z,5.37
2017-07-23T21:12:43.184Z,4.85
2017-07-23T21:15:17.961Z,3.92
2017-07-23T21:17:53.177Z,5.53
2017-07-23T21:20:28.372Z,5.82
2017-07-23T21:23:03.016Z,4.65
2017-07-23T21:25:37.524Z,4.47
2017-07-23T21:28:12.207Z,4.37
2017-07-23T21:30:46.518Z,4.28
2017-07-23T21:33:20.932Z,4.03
2017-07-23T21:35:55.399Z,4.68
2017-07-23T21:38:29.786Z,4.12
2017-07-23T21:41:04.061Z,4.32
2017-07-23T21:43:38.844Z,4.37
2017-07-23T21:46:13.152Z,4.37
2017-07-23T21:48:47.852Z,5.00
2017-07-23T21:51:22.303Z,3.70
2017-07-23T21:53:57.863Z,5.12
2017-07-23T21:56:32.189Z,4.60
2017-07-23T21:59:06.675Z,5.75
2017-07-23T22:01:41.144Z,4.70
2017-07-23T22:04:15.557Z,4.78
2017-07-23T22:06:50.001Z,4.60
2017-07-23T22:09:24.426Z,6.18
2017-07-23T22:11:58.848Z,6.85
2017-07-23T22:14:33.166Z,4.55
2017-07-23T22:17:07.592Z,4.30
2017-07-23T22:19:42.068Z,4.93
2017-07-23T22:22:16.772Z,4.12
2017-07-23T22:24:51.088Z,4.90
2017-07-23T22:27:25.616Z,5.37
2017-07-23T22:29:59.945Z,5.15
2017-07-23T22:32:34.279Z,4.80
2017-07-23T22:35:08.712Z,4.55
2017-07-23T22:37:43.231Z,5.40
2017-07-23T22:40:18.463Z,7.82
2017-07-23T22:42:52.916Z,6.10
2017-07-23T22:45:27.408Z,4.50
2017-07-23T22:48:01.819Z,5.50
2017-07-23T22:50:40.175Z,8.38
2017-07-23T22:53:15.485Z,7.15
2017-07-23T22:55:49.837Z,10.45
2017-07-23T22:58:24.208Z,5.32
2017-07-23T23:00:58.589Z,5.72
2017-07-23T23:03:33.136Z,4.43
2017-07-23T23:06:08.461Z,5.78
2017-07-23T23:08:42.932Z,4.75
2017-07-23T23:11:17.347Z,5.00
2017-07-23T23:13:51.852Z,4.93
2017-07-23T23:16:27.215Z,5.30
2017-07-23T23:19:01.638Z,4.87
2017-07-23T23:21:36.013Z,4.30
2017-07-23T23:24:10.435Z,4.95
2017-07-23T23:26:44.810Z,5.25
2017-07-23T23:29:19.297Z,5.50
2017-07-23T23:31:53.816Z,5.30
2017-07-23T23:34:28.204Z,6.57
2017-07-23T23:37:02.768Z,7.15
2017-07-23T23:39:37.249Z,6.40
2017-07-23T23:42:11.564Z,6.07
2017-07-23T23:44:45.996Z,7.60
2017-07-23T23:47:20.428Z,6.78
2017-07-23T23:49:54.936Z,6.07
2017-07-23T23:52:29.380Z,7.32
2017-07-23T23:55:04.588Z,5.85
2017-07-23T23:57:39.092Z,6.80
